This is the latest recevied weather packets stored in our database for station/object JP3QZN-13. If no packets are shown the sender has not sent any weather packets the latest 10 day(s).
| Time | Temp. | Humidity | Pressure | Rain* | Wind** | Luminosity | Snow |
|---|---|---|---|---|---|---|---|
| 1777573828 | 16.11° C | 81% | 1005.8 hPa | 0 mm | - | - | - |
| 1777572027 | 16.11° C | 81% | 1006.4 hPa | 0 mm | - | - | - |
| 1777570226 | 16.11° C | 81% | 1007.7 hPa | 0 mm | - | - | - |
| 1777568426 | 15.56° C | 82% | 1008 hPa | 0 mm | - | - | - |
| 1777566625 | 15.56° C | 82% | 1008.5 hPa | 0 mm | - | - | - |
| 1777564814 | 15.56° C | 83% | 1009.3 hPa | 0.25 mm | - | - | - |
| 1777563014 | 15.56° C | 83% | 1009.6 hPa | 1.27 mm | - | - | - |
| 1777561213 | 15.56° C | 82% | 1011 hPa | 1.78 mm | - | - | - |
| 1777557612 | 16.11° C | 78% | 1013.6 hPa | 3.05 mm | - | - | - |
| 1777555811 | 16.67° C | 75% | 1014.6 hPa | 0.25 mm | - | - | - |
| 1777554011 | 16.67° C | 73% | 1013.5 hPa | 0 mm | - | - | - |
| 1777552210 | 17.22° C | 72% | 1014.1 hPa | 0 mm | - | - | - |
| 1777550409 | 17.22° C | 72% | 1015 hPa | 0 mm | - | - | - |
| 1777548608 | 17.22° C | 72% | 1015.6 hPa | 0 mm | - | - | - |
| 1777546807 | 17.22° C | 72% | 1016.1 hPa | 0 mm | - | - | - |
| 1777545007 | 16.67° C | 72% | 1016.5 hPa | 0 mm | - | - | - |
| 1777543206 | 16.67° C | 72% | 1016.8 hPa | 0 mm | - | - | - |
| 1777541406 | 16.67° C | 73% | 1017.3 hPa | 0 mm | - | - | - |
| 1777539615 | 16.67° C | 74% | 1017.9 hPa | 0 mm | - | - | - |
| 1777537814 | 16.67° C | 75% | 1018.2 hPa | 0 mm | - | - | - |
| 1777536013 | 16.67° C | 76% | 1018.4 hPa | 0 mm | - | - | - |
| 1777534213 | 16.67° C | 77% | 1018.8 hPa | 0 mm | - | - | - |
| 1777532412 | 16.67° C | 77% | 1019.1 hPa | 0 mm | - | - | - |
| 1777530611 | 16.67° C | 76% | 1019.6 hPa | 0 mm | - | - | - |
| 1777528811 | 17.22° C | 75% | 1020.5 hPa | 0 mm | - | - | - |
* Rain latest hour (hover to see other rain measurements)
** Current wind speed in m/s (hover to see current wind gust speed)